Aérodrome :
LOGIN :

S'inscrire | Disclaimer

   EN    FR    IT 

 










Légende :    VFR   VFR Marginal   IFR   IFR Intensif   IFR Très Intensif
Visi : 
Plafond : 
>= 8 km
>= 3000ft
5 à 8 km
1000 à 3000 ft
1500m à 5 km
500 à 1000 ft
800 à 1500m
200 à 500 ft
< 800m
< 200 ft
Symboles :   Orages  Brouillard  Fortes neiges  Fortes précipitations  Vent > 20 kt
SIGMETs :   Divers  Orages  Givrage  Turbulence  Onde Orograph.  Cendres Volcan.







- Altitude de l'aérodrome : 659 ft
- Code IATA : LGG


EBLG - Liège

DERNIER METAR :
  • 260450Z 21013KT CAVOK 07/01 Q1012 NOSIG

METARs EXPIRÉS :
  • 260420Z 21016KT CAVOK 07/01 Q1012 NOSIG
  • 260350Z 21014KT CAVOK 06/01 Q1013 NOSIG
  • 260320Z 21012KT CAVOK 07/00 Q1013 NOSIG
  • 260250Z 21012KT CAVOK 06/00 Q1013 NOSIG
  • 260220Z 21013KT CAVOK 07/00 Q1013 NOSIG

TAF COR TAF EBLG
Valide du 26 à 00h jusqu'au 27 à 06h UTC


260054Z 2600/2706 20010KT 9999 SCT020 BKN030
BECMG 2610/2612 BKN010
PROB30
TEMPO 2611/2623 4000 -DZ BKN007
BECMG 2700/2702 SCT012 BKN018
Pas de NOTAMs connus pour ce terrain.



MET'MAP, la Météo Aéronautique d'un coup d'oeil ! - Copyright ORBIFLY Décembre 2007 - Disclaimer

ORBIFLY MET'MAP TEAM :

Programmation & Développement : Alexandra Zaïnal
Conception & Développement : Baudouin d'Aumeries
Co-Programmation & Développement : Marc-Olivier Méhu
Soutien technique & logistique : Manuel Goepfert

Contact : metmap@orbifly.com




SOURCES & CREDITS :

   NOAA